createdAt,value
2018-05-16T00:01:34.731Z,3.40
2018-05-16T00:04:37.284Z,3.93
2018-05-16T00:07:39.884Z,2.47
2018-05-16T00:10:42.441Z,3.10
2018-05-16T00:13:45.040Z,2.40
2018-05-16T00:16:47.645Z,2.67
2018-05-16T00:19:50.272Z,3.00
2018-05-16T00:22:52.951Z,2.10
2018-05-16T00:25:55.550Z,2.53
2018-05-16T00:28:58.137Z,2.60
2018-05-16T00:32:01.302Z,3.63
2018-05-16T00:35:03.934Z,2.43
2018-05-16T00:38:07.284Z,3.77
2018-05-16T00:41:09.903Z,4.30
2018-05-16T00:44:13.230Z,4.20
2018-05-16T00:47:15.829Z,4.07
2018-05-16T00:50:18.424Z,5.10
2018-05-16T00:53:21.107Z,4.30
2018-05-16T00:56:23.717Z,4.20
2018-05-16T00:59:26.316Z,4.33
2018-05-16T01:02:28.896Z,5.50
2018-05-16T01:05:31.635Z,5.33
2018-05-16T01:08:34.202Z,4.13
2018-05-16T01:11:36.793Z,5.63
2018-05-16T01:14:39.659Z,6.30
2018-05-16T01:17:42.227Z,4.83
2018-05-16T01:20:44.825Z,6.07
2018-05-16T01:23:47.422Z,6.10
2018-05-16T01:26:50.381Z,7.20
2018-05-16T01:29:53.171Z,5.97
2018-05-16T01:32:55.764Z,4.90
2018-05-16T01:35:58.355Z,4.57
2018-05-16T01:39:00.993Z,4.70
2018-05-16T01:42:04.398Z,4.90
2018-05-16T01:45:07.004Z,4.83
2018-05-16T01:48:09.795Z,7.30
2018-05-16T01:51:12.392Z,6.23
2018-05-16T01:54:14.978Z,5.23
2018-05-16T01:57:17.608Z,4.60
2018-05-16T02:00:20.316Z,4.43
2018-05-16T02:03:23.653Z,4.30
2018-05-16T02:06:26.509Z,4.87
2018-05-16T02:09:29.082Z,4.67
2018-05-16T02:12:31.693Z,4.60
2018-05-16T02:15:34.299Z,5.30
2018-05-16T02:18:36.875Z,4.60
2018-05-16T02:21:39.457Z,4.23
2018-05-16T02:24:42.042Z,5.40
2018-05-16T02:27:44.840Z,7.57
2018-05-16T02:30:51.321Z,5.00
2018-05-16T02:33:54.831Z,4.77
2018-05-16T02:36:57.475Z,4.77
2018-05-16T02:40:00.052Z,5.30
2018-05-16T02:43:02.676Z,5.80
2018-05-16T02:46:05.270Z,5.30
2018-05-16T02:49:07.850Z,4.70
2018-05-16T02:52:11.213Z,4.43
2018-05-16T02:55:13.794Z,3.70
2018-05-16T02:58:16.424Z,4.53
2018-05-16T03:01:19.293Z,5.73
2018-05-16T03:04:21.875Z,5.00
2018-05-16T03:07:24.459Z,6.40
2018-05-16T03:10:27.026Z,5.53
2018-05-16T03:13:29.640Z,5.13
2018-05-16T03:16:32.249Z,4.77
2018-05-16T03:19:35.023Z,8.13
2018-05-16T03:22:37.623Z,5.17
2018-05-16T03:25:40.777Z,6.10
2018-05-16T03:28:43.382Z,7.00
2018-05-16T03:31:46.015Z,8.37
2018-05-16T03:34:48.606Z,7.83
2018-05-16T03:37:51.167Z,9.03
2018-05-16T03:40:53.763Z,6.20
2018-05-16T03:43:56.361Z,5.60
2018-05-16T03:46:59.005Z,8.00
2018-05-16T03:50:01.558Z,7.30
2018-05-16T03:53:04.150Z,9.10
2018-05-16T03:56:06.735Z,6.83
2018-05-16T03:59:21.589Z,8.30
2018-05-16T04:02:36.044Z,9.77
2018-05-16T04:05:38.706Z,8.17
2018-05-16T04:08:42.147Z,9.73
2018-05-16T04:11:44.763Z,7.23
2018-05-16T04:14:47.337Z,8.10
2018-05-16T04:17:49.967Z,8.53
2018-05-16T04:20:52.544Z,8.17
2018-05-16T04:23:56.082Z,8.10
2018-05-16T04:26:58.900Z,8.17
2018-05-16T04:30:01.514Z,8.80
2018-05-16T04:33:04.640Z,7.87
2018-05-16T04:36:07.243Z,6.93
2018-05-16T04:39:09.816Z,8.70
2018-05-16T04:42:12.989Z,8.60
2018-05-16T04:45:15.551Z,7.53
2018-05-16T04:48:18.155Z,9.47
2018-05-16T04:51:20.829Z,10.50
2018-05-16T04:54:23.405Z,8.53
2018-05-16T04:57:26.006Z,9.10
2018-05-16T05:00:28.634Z,8.70
2018-05-16T05:03:31.201Z,8.60
2018-05-16T05:06:33.785Z,8.60
2018-05-16T05:09:36.383Z,9.73
2018-05-16T05:12:38.977Z,8.30
2018-05-16T05:15:42.331Z,9.13
2018-05-16T05:18:45.575Z,8.20
2018-05-16T05:21:48.115Z,10.13
2018-05-16T05:24:50.680Z,8.80
2018-05-16T05:27:53.316Z,9.47
2018-05-16T05:30:56.852Z,8.37
2018-05-16T05:33:59.453Z,8.73
2018-05-16T05:37:02.030Z,8.53
2018-05-16T05:40:04.791Z,7.77
2018-05-16T05:43:07.583Z,7.87
2018-05-16T05:46:10.175Z,7.03
2018-05-16T05:49:12.822Z,7.60
2018-05-16T05:52:15.366Z,6.43
2018-05-16T05:55:17.963Z,8.00
2018-05-16T05:58:20.799Z,5.07
2018-05-16T06:01:23.389Z,4.23
2018-05-16T06:04:25.985Z,5.17
2018-05-16T06:07:28.851Z,5.40
2018-05-16T06:10:31.504Z,6.00
2018-05-16T06:13:34.087Z,7.23
2018-05-16T06:16:37.446Z,7.37
2018-05-16T06:19:40.107Z,5.23
2018-05-16T06:22:43.432Z,5.43
2018-05-16T06:25:46.066Z,3.23
2018-05-16T06:28:49.423Z,3.77
2018-05-16T06:31:52.030Z,2.90
2018-05-16T06:34:55.665Z,4.60
2018-05-16T06:37:58.235Z,2.77
2018-05-16T06:41:00.976Z,4.80
2018-05-16T06:44:03.603Z,4.53
2018-05-16T06:47:06.974Z,2.70
2018-05-16T06:50:10.331Z,5.00
2018-05-16T06:53:12.923Z,4.27
2018-05-16T06:56:15.520Z,6.40
2018-05-16T06:59:18.217Z,4.00
2018-05-16T07:02:20.905Z,5.57
2018-05-16T07:05:23.503Z,5.87
2018-05-16T07:08:26.099Z,5.70
2018-05-16T07:14:54.469Z,7.23
2018-05-16T07:17:57.065Z,4.90
2018-05-16T07:27:53.788Z,5.63
2018-05-16T07:30:56.387Z,3.90
2018-05-16T07:33:59.068Z,4.30
2018-05-16T07:37:01.683Z,3.33
2018-05-16T07:40:04.792Z,3.03
2018-05-16T07:43:07.822Z,2.60
2018-05-16T07:46:10.440Z,2.70
2018-05-16T07:49:13.053Z,2.77
2018-05-16T07:52:15.682Z,1.60
2018-05-16T07:55:18.253Z,4.27
2018-05-16T07:58:20.922Z,1.67
2018-05-16T08:01:24.266Z,2.03
2018-05-16T08:04:26.935Z,2.30
2018-05-16T08:07:29.516Z,1.77
2018-05-16T08:10:32.101Z,5.00
2018-05-16T08:13:34.811Z,1.10
2018-05-16T08:16:37.404Z,1.80
2018-05-16T08:19:40.000Z,5.03
2018-05-16T08:22:42.615Z,2.30
2018-05-16T08:25:45.556Z,1.20
2018-05-16T08:28:48.371Z,2.57
2018-05-16T08:31:50.942Z,1.90
2018-05-16T08:34:53.579Z,2.90
2018-05-16T08:37:56.409Z,1.33
2018-05-16T08:40:59.171Z,1.47
2018-05-16T08:44:01.908Z,2.07
2018-05-16T08:47:04.492Z,1.67
2018-05-16T08:50:07.183Z,1.63
2018-05-16T08:53:09.753Z,2.07
2018-05-16T08:56:13.755Z,3.63
2018-05-16T08:59:17.171Z,1.80
2018-05-16T09:02:19.754Z,2.43
2018-05-16T09:05:22.671Z,1.97
2018-05-16T09:08:25.235Z,1.77
2018-05-16T09:11:27.829Z,2.10
2018-05-16T09:14:30.560Z,3.73
2018-05-16T09:17:33.162Z,1.87
2018-05-16T09:20:38.744Z,4.80
2018-05-16T09:23:41.424Z,2.50
2018-05-16T09:26:44.080Z,3.03
2018-05-16T09:29:47.682Z,2.00
2018-05-16T09:32:50.397Z,2.40
2018-05-16T09:35:53.061Z,2.53
2018-05-16T09:38:55.748Z,2.20
2018-05-16T09:41:58.638Z,2.20
2018-05-16T09:45:01.332Z,1.40
2018-05-16T09:48:04.975Z,1.53
2018-05-16T09:51:07.585Z,2.77
2018-05-16T09:54:11.020Z,2.07
2018-05-16T09:57:13.646Z,2.50
2018-05-16T10:00:16.304Z,5.33
2018-05-16T10:03:18.926Z,5.20
2018-05-16T10:06:21.527Z,2.40
2018-05-16T10:09:24.296Z,2.87
2018-05-16T10:12:26.906Z,2.60
2018-05-16T10:15:29.523Z,2.30
2018-05-16T10:18:32.151Z,2.10
2018-05-16T10:21:35.675Z,1.70
2018-05-16T10:24:39.022Z,2.97
2018-05-16T10:27:41.643Z,1.87
2018-05-16T10:30:45.138Z,2.43
2018-05-16T10:33:48.562Z,1.97
2018-05-16T10:36:51.177Z,2.40
2018-05-16T10:39:54.251Z,2.20
2018-05-16T10:42:56.954Z,3.30
2018-05-16T10:46:00.294Z,2.70
2018-05-16T10:49:03.018Z,2.27
2018-05-16T10:52:05.672Z,2.43
2018-05-16T10:55:08.280Z,2.93
2018-05-16T10:58:10.913Z,2.17
2018-05-16T11:01:13.947Z,2.03
2018-05-16T11:04:16.547Z,2.40
2018-05-16T11:07:20.611Z,2.37
2018-05-16T11:10:24.023Z,2.70
2018-05-16T11:13:28.572Z,2.43
2018-05-16T11:16:31.166Z,2.50
2018-05-16T11:19:33.739Z,2.50
2018-05-16T11:22:36.643Z,2.27
2018-05-16T11:25:39.253Z,2.37
2018-05-16T11:28:41.835Z,2.30
2018-05-16T11:31:44.400Z,2.47
2018-05-16T11:34:47.061Z,2.37
2018-05-16T11:37:49.638Z,2.10
2018-05-16T11:40:52.321Z,3.00
2018-05-16T11:43:54.924Z,3.30
2018-05-16T11:46:57.518Z,2.70
2018-05-16T11:50:00.114Z,2.37
2018-05-16T11:53:02.944Z,2.50
2018-05-16T11:56:05.641Z,2.20
2018-05-16T11:59:08.241Z,2.27
2018-05-16T12:02:10.835Z,4.50
2018-05-16T12:05:13.524Z,4.23
2018-05-16T12:08:16.134Z,3.07
2018-05-16T12:11:18.739Z,2.30
2018-05-16T12:14:21.321Z,2.63
2018-05-16T12:17:24.620Z,4.73
2018-05-16T12:20:27.232Z,4.43
2018-05-16T12:23:29.816Z,4.13
2018-05-16T12:26:32.418Z,2.93
2018-05-16T12:29:35.167Z,2.37
2018-05-16T12:32:37.869Z,1.60
2018-05-16T12:35:40.650Z,1.70
2018-05-16T12:38:43.404Z,5.90
2018-05-16T12:41:50.033Z,2.13
2018-05-16T12:44:53.545Z,2.10
2018-05-16T12:47:56.152Z,1.67
2018-05-16T12:50:58.776Z,1.83
2018-05-16T12:54:01.521Z,3.83
2018-05-16T12:57:04.126Z,4.03
2018-05-16T13:00:06.817Z,4.90
2018-05-16T13:03:09.413Z,6.03
2018-05-16T13:06:12.038Z,1.63
2018-05-16T13:09:14.947Z,2.20
2018-05-16T13:12:17.608Z,1.30
2018-05-16T13:15:20.216Z,1.10
2018-05-16T13:18:23.616Z,0.80
2018-05-16T13:21:26.335Z,1.20
2018-05-16T13:24:28.954Z,1.00
2018-05-16T13:27:31.606Z,2.10
2018-05-16T13:30:34.326Z,1.63
2018-05-16T13:33:37.702Z,1.60
2018-05-16T13:36:40.385Z,2.80
2018-05-16T13:39:43.147Z,2.00
2018-05-16T13:42:46.766Z,2.10
2018-05-16T13:45:49.390Z,1.40
2018-05-16T13:48:52.107Z,1.73
2018-05-16T13:51:54.734Z,1.43
2018-05-16T13:54:57.393Z,2.20
2018-05-16T13:58:00.310Z,1.50
2018-05-16T14:01:02.959Z,1.60
2018-05-16T14:04:06.813Z,2.50
2018-05-16T14:07:09.652Z,1.97
2018-05-16T14:10:12.251Z,2.53
2018-05-16T14:13:14.899Z,1.60
2018-05-16T14:16:18.278Z,2.80
2018-05-16T14:19:20.875Z,2.03
2018-05-16T14:22:24.266Z,1.47
2018-05-16T14:25:26.992Z,1.60
2018-05-16T14:28:31.689Z,1.63
2018-05-16T14:31:35.088Z,2.17
2018-05-16T14:34:38.687Z,1.77
2018-05-16T14:37:41.519Z,7.03
2018-05-16T14:40:44.131Z,1.73
2018-05-16T14:43:46.778Z,1.83
2018-05-16T14:46:49.411Z,2.00
2018-05-16T14:49:52.034Z,1.70
2018-05-16T14:52:54.680Z,1.53
2018-05-16T14:55:57.500Z,2.50
2018-05-16T14:59:00.186Z,1.43
2018-05-16T15:02:03.378Z,5.33
2018-05-16T15:05:05.995Z,3.93
2018-05-16T15:08:08.587Z,3.13
2018-05-16T15:11:11.171Z,2.93
2018-05-16T15:14:13.794Z,2.07
2018-05-16T15:17:17.135Z,2.13
2018-05-16T15:20:19.715Z,2.50
2018-05-16T15:23:22.312Z,2.87
2018-05-16T15:26:25.075Z,1.87
2018-05-16T15:29:27.739Z,2.17
2018-05-16T15:32:30.437Z,2.13
2018-05-16T15:35:33.104Z,3.20
2018-05-16T15:38:35.747Z,2.53
2018-05-16T15:41:38.365Z,4.10
2018-05-16T15:44:41.841Z,2.07
2018-05-16T15:47:44.564Z,1.90
2018-05-16T15:50:47.185Z,2.00
2018-05-16T15:53:49.788Z,1.97
2018-05-16T15:56:53.440Z,2.13
2018-05-16T15:59:56.211Z,2.37
2018-05-16T16:02:58.906Z,2.17
2018-05-16T16:06:01.703Z,2.80
2018-05-16T16:09:05.210Z,3.30
2018-05-16T16:12:07.777Z,2.13
2018-05-16T16:15:10.427Z,2.37
2018-05-16T16:18:13.113Z,1.80
2018-05-16T16:21:15.758Z,1.93
2018-05-16T16:24:18.343Z,1.93
2018-05-16T16:27:21.028Z,3.80
2018-05-16T16:30:23.599Z,2.03
2018-05-16T16:33:28.012Z,2.70
2018-05-16T16:36:31.667Z,3.40
2018-05-16T16:39:34.442Z,3.73
2018-05-16T16:42:37.016Z,2.53
2018-05-16T16:45:39.718Z,2.60
2018-05-16T16:48:42.334Z,2.50
2018-05-16T16:51:45.947Z,2.20
2018-05-16T16:54:48.559Z,2.17
2018-05-16T16:57:51.135Z,2.87
2018-05-16T17:00:53.698Z,2.93
2018-05-16T17:03:56.494Z,2.63
2018-05-16T17:06:59.145Z,2.40
2018-05-16T17:10:01.780Z,1.90
2018-05-16T17:13:04.536Z,2.67
2018-05-16T17:16:07.138Z,4.30
2018-05-16T17:19:09.739Z,2.20
2018-05-16T17:22:12.379Z,3.93
2018-05-16T17:25:15.057Z,2.10
2018-05-16T17:28:17.750Z,2.63
2018-05-16T17:31:20.378Z,3.40
2018-05-16T17:34:23.033Z,4.70
2018-05-16T17:37:25.776Z,4.70
2018-05-16T17:40:29.979Z,4.70
2018-05-16T17:43:32.620Z,2.50
2018-05-16T17:46:35.308Z,4.67
2018-05-16T17:49:38.706Z,2.87
2018-05-16T17:52:41.309Z,3.13
2018-05-16T17:55:43.995Z,2.77
2018-05-16T17:58:47.577Z,2.13
2018-05-16T18:01:50.422Z,2.80
2018-05-16T18:04:53.983Z,4.10
2018-05-16T18:07:56.678Z,3.50
2018-05-16T18:10:59.347Z,2.67
2018-05-16T18:14:13.978Z,3.97
2018-05-16T18:17:27.523Z,2.93
2018-05-16T18:20:30.202Z,3.17
2018-05-16T18:23:33.094Z,3.00
2018-05-16T18:26:35.694Z,2.40
2018-05-16T18:29:38.317Z,3.40
2018-05-16T18:32:40.909Z,4.20
2018-05-16T18:35:43.749Z,3.40
2018-05-16T18:38:48.018Z,3.60
2018-05-16T18:41:50.805Z,3.03
2018-05-16T18:44:54.243Z,3.00
2018-05-16T18:47:57.014Z,3.13
2018-05-16T18:51:00.441Z,3.40
2018-05-16T18:54:03.689Z,2.50
2018-05-16T18:57:07.128Z,2.90
2018-05-16T19:00:09.753Z,3.37
2018-05-16T19:03:12.364Z,3.33
2018-05-16T19:06:14.955Z,3.10
2018-05-16T19:09:18.306Z,3.20
2018-05-16T19:12:21.058Z,4.47
2018-05-16T19:15:23.654Z,3.20
2018-05-16T19:18:26.297Z,3.40
2018-05-16T19:21:29.956Z,3.03
2018-05-16T19:24:32.725Z,2.50
2018-05-16T19:27:35.404Z,3.63
2018-05-16T19:30:38.221Z,2.77
2018-05-16T19:33:40.833Z,3.17
2018-05-16T19:36:43.481Z,3.30
2018-05-16T19:39:46.093Z,3.30
2018-05-16T19:42:48.733Z,2.47
2018-05-16T19:45:51.553Z,2.70
2018-05-16T19:48:54.915Z,2.20
2018-05-16T19:51:57.500Z,3.30
2018-05-16T19:55:00.163Z,3.13
2018-05-16T19:58:02.950Z,3.03
2018-05-16T20:01:05.755Z,4.00
2018-05-16T20:04:08.379Z,3.27
2018-05-16T20:07:10.974Z,4.03
2018-05-16T20:10:13.606Z,3.23
2018-05-16T20:13:16.584Z,2.47
2018-05-16T20:16:19.241Z,2.63
2018-05-16T20:19:21.947Z,3.07
2018-05-16T20:22:24.602Z,6.10
2018-05-16T20:25:27.407Z,2.80
2018-05-16T20:28:30.795Z,3.40
2018-05-16T20:31:33.396Z,4.03
2018-05-16T20:34:35.975Z,3.17
2018-05-16T20:37:38.664Z,3.10
2018-05-16T20:40:41.403Z,2.63
2018-05-16T20:43:44.325Z,2.40
2018-05-16T20:46:47.660Z,2.43
2018-05-16T20:49:50.436Z,2.40
2018-05-16T20:52:53.119Z,3.00
2018-05-16T20:55:55.742Z,2.47
2018-05-16T20:58:58.462Z,2.97
2018-05-16T21:02:01.075Z,2.97
2018-05-16T21:05:03.769Z,5.00
2018-05-16T21:08:06.525Z,3.93
2018-05-16T21:11:09.197Z,2.50
2018-05-16T21:14:11.726Z,2.20
2018-05-16T21:17:14.310Z,3.10
2018-05-16T21:20:16.963Z,2.70
2018-05-16T21:23:19.577Z,4.90
2018-05-16T21:26:22.436Z,4.40
2018-05-16T21:29:25.050Z,4.50
2018-05-16T21:32:27.623Z,3.50
2018-05-16T21:35:30.307Z,4.10
2018-05-16T21:38:32.927Z,2.80
2018-05-16T21:41:35.638Z,3.70
2018-05-16T21:44:38.248Z,3.00
2018-05-16T21:47:40.878Z,2.57
2018-05-16T21:50:44.306Z,4.60
2018-05-16T21:53:46.880Z,3.73
2018-05-16T21:56:49.656Z,2.50
2018-05-16T21:59:52.260Z,4.03
2018-05-16T22:02:55.040Z,3.10
2018-05-16T22:05:57.644Z,2.70
2018-05-16T22:09:00.252Z,2.90
2018-05-16T22:12:02.884Z,2.50
2018-05-16T22:15:05.513Z,2.70
2018-05-16T22:18:08.125Z,2.73
2018-05-16T22:21:10.944Z,3.33
2018-05-16T22:24:13.537Z,2.50
2018-05-16T22:27:16.123Z,2.70
2018-05-16T22:30:18.192Z,2.80
2018-05-16T22:33:27.220Z,3.93
2018-05-16T22:36:35.443Z,3.07
2018-05-16T22:39:43.589Z,4.00
2018-05-16T22:42:45.690Z,6.10
2018-05-16T22:45:53.795Z,3.37
2018-05-16T22:48:57.209Z,3.70
2018-05-16T22:51:59.795Z,3.20
2018-05-16T22:55:02.411Z,4.13
2018-05-16T22:58:04.992Z,3.67
2018-05-16T23:01:07.608Z,7.83
2018-05-16T23:04:10.987Z,6.10
2018-05-16T23:07:13.723Z,4.53
2018-05-16T23:10:16.538Z,4.53
2018-05-16T23:13:19.131Z,3.30
2018-05-16T23:16:21.743Z,4.10
2018-05-16T23:19:24.460Z,3.77
2018-05-16T23:22:27.289Z,4.97
2018-05-16T23:25:29.880Z,4.90
2018-05-16T23:28:32.575Z,3.60
2018-05-16T23:31:35.972Z,4.60
2018-05-16T23:34:38.696Z,4.80
2018-05-16T23:37:41.276Z,4.80
2018-05-16T23:40:43.851Z,3.73
2018-05-16T23:43:46.436Z,4.50
2018-05-16T23:46:49.110Z,5.10
2018-05-16T23:49:52.615Z,5.40
2018-05-16T23:52:56.001Z,5.03
2018-05-16T23:55:59.122Z,4.47
2018-05-16T23:59:01.800Z,4.37
